Time;durP1;ratioP1;P1;durP2;ratioP2;P2;SDS_P1;SDS_P2;PMS_P1;PMS_P2;Temp;Humidity;BMP_temperature;BMP_pressure;BME280_temperature;BME280_humidity;BME280_pressure;Samples;Min_cycle;Max_cycle;Signal;HPM_P1;HPM_P2
2021/12/22 00:01:25;;;;;;;4.82;2.92;;;;;;;-0.77;100.00;101991.06;4977457;28;20034;-68
2021/12/22 00:03:52;;;;;;;5.07;3.42;;;;;;;-0.80;100.00;101986.28;4989860;28;20038;-69
2021/12/22 00:06:23;;;;;;;5.25;2.63;;;;;;;-0.82;100.00;101996.28;4986238;28;20074;-69
2021/12/22 00:08:49;;;;;;;4.25;2.05;;;;;;;-0.81;100.00;101997.09;4973568;28;20555;-68
2021/12/22 00:11:15;;;;;;;4.55;2.25;;;;;;;-0.77;100.00;101998.22;4990101;28;20387;-66
2021/12/22 00:13:40;;;;;;;5.28;2.33;;;;;;;-0.83;100.00;101999.19;4980685;28;20046;-67
2021/12/22 00:16:07;;;;;;;3.65;2.20;;;;;;;-0.91;100.00;102005.69;4988175;28;20093;-66
2021/12/22 00:18:32;;;;;;;2.80;2.05;;;;;;;-1.03;100.00;101997.06;4986431;28;20715;-67
2021/12/22 00:20:58;;;;;;;5.30;2.13;;;;;;;-1.00;100.00;101999.22;4992759;28;20117;-66
2021/12/22 00:23:23;;;;;;;3.13;1.85;;;;;;;-1.01;100.00;102000.28;4991840;28;20406;-69
2021/12/22 00:25:49;;;;;;;3.92;2.65;;;;;;;-1.02;100.00;102001.31;4983029;28;20042;-67
2021/12/22 00:28:14;;;;;;;4.97;2.33;;;;;;;-0.99;100.00;101998.19;4982366;28;20045;-67
2021/12/22 00:30:41;;;;;;;5.28;1.95;;;;;;;-1.03;100.00;101997.84;4973206;28;20035;-67
2021/12/22 00:33:09;;;;;;;3.08;2.25;;;;;;;-1.09;100.00;102004.13;4972047;28;20061;-67
2021/12/22 00:35:42;;;;;;;3.05;2.67;;;;;;;-1.09;100.00;101992.75;4974931;28;20039;-67
2021/12/22 00:38:10;;;;;;;18.42;2.70;;;;;;;-1.12;100.00;101998.50;4974112;28;20174;-67
2021/12/22 00:40:37;;;;;;;9.30;2.25;;;;;;;-1.08;100.00;101989.06;4982861;28;20034;-68
2021/12/22 00:43:03;;;;;;;1.98;1.88;;;;;;;-1.14;100.00;101995.31;4996093;28;20042;-67
2021/12/22 00:45:31;;;;;;;2.78;2.17;;;;;;;-1.19;100.00;101995.25;4992447;28;20042;-67
2021/12/22 00:47:57;;;;;;;3.05;1.98;;;;;;;-1.18;100.00;102004.81;4978934;28;20117;-67
2021/12/22 00:50:22;;;;;;;4.57;2.35;;;;;;;-1.15;100.00;101997.19;4989862;28;20577;-67
2021/12/22 00:52:49;;;;;;;3.92;2.10;;;;;;;-1.04;100.00;101995.47;4991133;28;20080;-67
2021/12/22 00:55:18;;;;;;;2.05;1.02;;;;;;;-1.18;100.00;102004.81;4985586;28;20052;-66
2021/12/22 00:57:45;;;;;;;2.95;1.90;;;;;;;-1.19;100.00;102005.81;4975275;28;20221;-67
2021/12/22 01:00:11;;;;;;;2.30;1.80;;;;;;;-1.35;100.00;102007.44;4990968;28;20041;-67
2021/12/22 01:02:36;;;;;;;5.05;2.13;;;;;;;-1.33;100.00;102001.91;4979855;28;20111;-67
2021/12/22 01:05:06;;;;;;;3.28;2.03;;;;;;;-1.32;100.00;102008.81;4982155;28;20084;-68
2021/12/22 01:07:31;;;;;;;2.28;1.90;;;;;;;-1.32;100.00;102009.63;4997682;28;20050;-67
2021/12/22 01:09:57;;;;;;;2.85;1.77;;;;;;;-1.30;100.00;102014.66;4995456;28;20391;-67
2021/12/22 01:12:23;;;;;;;10.90;2.25;;;;;;;-1.28;100.00;102009.94;4992165;28;20034;-68
2021/12/22 01:14:48;;;;;;;4.80;2.58;;;;;;;-1.30;100.00;102004.91;4972868;28;20815;-67
2021/12/22 01:17:16;;;;;;;4.93;1.90;;;;;;;-1.36;100.00;102007.69;4996980;28;20084;-67
2021/12/22 01:22:22;;;;;;;3.22;1.38;;;;;;;-1.42;100.00;102011.31;4976801;28;20030;-66
2021/12/22 01:24:49;;;;;;;1.70;1.60;;;;;;;-1.45;100.00;102011.78;4983835;28;20065;-66
2021/12/22 01:27:20;;;;;;;2.13;1.38;;;;;;;-1.48;100.00;102017.53;5001936;28;20402;-67
2021/12/22 01:29:47;;;;;;;3.58;2.13;;;;;;;-1.53;100.00;102015.59;4979556;28;20039;-67
2021/12/22 01:32:14;;;;;;;4.80;2.88;;;;;;;-1.38;99.60;102009.78;4990862;28;20034;-67
2021/12/22 01:34:39;;;;;;;3.38;1.85;;;;;;;-1.50;99.31;102014.34;4975460;28;20042;-67
2021/12/22 01:37:04;;;;;;;2.85;1.40;;;;;;;-1.60;99.40;102014.97;4997074;28;20035;-67
2021/12/22 01:39:30;;;;;;;2.35;1.45;;;;;;;-1.61;99.88;102012.59;4985577;28;20532;-67
2021/12/22 01:41:56;;;;;;;6.88;2.00;;;;;;;-1.57;99.45;102008.44;4989807;28;20117;-66
2021/12/22 01:45:14;;;;;;;1.55;1.45;;;;;;;-1.63;99.31;102017.31;4982217;28;20077;-66
2021/12/22 01:50:48;;;;;;;1.77;1.58;;;;;;;-1.66;99.57;102020.41;4981618;28;20125;-67
2021/12/22 01:53:23;;;;;;;3.92;1.98;;;;;;;-1.67;99.40;102016.19;4971958;28;20406;-66
2021/12/22 01:56:25;;;;;;;4.07;1.93;;;;;;;-1.64;99.38;102011.22;4973225;28;20047;-66
2021/12/22 01:58:54;;;;;;;1.63;1.38;;;;;;;-1.69;99.31;102007.69;4988586;28;20057;-68
2021/12/22 02:01:20;;;;;;;2.28;1.35;;;;;;;-1.65;99.14;102009.63;4989723;28;20038;-67
2021/12/22 02:03:48;;;;;;;4.07;1.87;;;;;;;-1.67;99.08;102008.25;4990226;28;20053;-66
2021/12/22 02:06:14;;;;;;;2.30;1.27;;;;;;;-1.66;98.97;102018.56;4980543;28;20392;-67
2021/12/22 02:08:41;;;;;;;4.25;1.70;;;;;;;-1.71;98.60;102015.06;4970954;28;20034;-67
2021/12/22 02:11:08;;;;;;;6.28;1.55;;;;;;;-1.64;98.64;102015.69;4975177;28;20033;-66
2021/12/22 02:13:38;;;;;;;2.17;1.80;;;;;;;-1.78;98.67;102014.44;4973732;28;20034;-69
2021/12/22 02:16:13;;;;;;;2.67;1.90;;;;;;;-1.76;98.29;102009.72;4986757;28;20026;-67
2021/12/22 02:18:44;;;;;;;3.57;1.47;;;;;;;-1.77;98.45;102011.53;4977920;28;20038;-66
2021/12/22 02:21:09;;;;;;;7.32;2.50;;;;;;;-1.83;98.49;102012.50;4987622;28;20103;-68
2021/12/22 02:23:36;;;;;;;4.60;2.17;;;;;;;-1.82;98.59;102016.75;4972066;28;20034;-67
2021/12/22 02:26:19;;;;;;;3.67;2.70;;;;;;;-1.80;98.54;102011.22;4973024;28;20122;-69
2021/12/22 02:28:48;;;;;;;3.13;1.75;;;;;;;-1.88;98.75;102010.56;4989176;28;20034;-67
2021/12/22 02:31:16;;;;;;;4.33;1.90;;;;;;;-1.71;97.98;102005.31;4981500;28;20042;-68
2021/12/22 02:33:43;;;;;;;2.73;1.80;;;;;;;-1.83;97.82;102004.56;4990167;28;20085;-66
2021/12/22 02:38:40;;;;;;;3.38;1.45;;;;;;;-1.90;98.41;102011.84;4990568;28;20088;-66
2021/12/22 02:41:08;;;;;;;2.08;1.20;;;;;;;-1.83;98.68;102010.66;4987380;28;20042;-67
2021/12/22 02:43:34;;;;;;;2.00;1.80;;;;;;;-1.87;98.47;102008.72;4988132;28;20034;-67
2021/12/22 02:46:01;;;;;;;2.85;1.45;;;;;;;-1.80;98.14;102000.66;4990030;28;20038;-66
2021/12/22 02:48:31;;;;;;;1.90;1.10;;;;;;;-1.88;97.95;102015.84;4988223;28;20149;-67
2021/12/22 02:51:00;;;;;;;2.00;1.50;;;;;;;-1.79;97.51;102004.91;4972194;28;20035;-67
2021/12/22 02:53:31;;;;;;;3.07;2.27;;;;;;;-1.83;96.92;102008.03;4989115;28;20402;-66
2021/12/22 02:56:13;;;;;;;1.60;1.40;;;;;;;-2.03;98.09;102018.22;4973227;28;20061;-67
2021/12/22 02:58:58;;;;;;;3.47;1.80;;;;;;;-2.02;98.44;102006.66;4979805;28;20057;-68
2021/12/22 03:04:05;;;;;;;1.70;1.37;;;;;;;-2.00;98.68;102019.59;4978845;28;20042;-68
2021/12/22 03:08:56;;;;;;;1.80;1.70;;;;;;;-1.97;98.69;102005.91;4989098;28;20068;-67
2021/12/22 03:11:22;;;;;;;3.47;1.63;;;;;;;-1.80;96.69;102013.88;4990211;28;20038;-67
2021/12/22 03:13:47;;;;;;;0.75;0.73;;;;;;;-1.91;96.28;102008.41;4970420;28;20035;-67
2021/12/22 03:16:13;;;;;;;3.10;1.98;;;;;;;-2.10;97.48;102003.59;4977727;28;20026;-66
2021/12/22 03:18:39;;;;;;;3.15;1.45;;;;;;;-2.08;98.14;102010.22;4977827;28;20515;-67
2021/12/22 03:21:38;;;;;;;2.17;1.98;;;;;;;-2.10;98.12;102001.75;4983152;28;20031;-67
2021/12/22 03:23:57;;;;;;;3.97;2.33;;;;;;;-2.03;97.67;102002.38;4967656;28;20046;-67
2021/12/22 03:26:24;;;;;;;2.20;1.87;;;;;;;-2.07;97.47;102005.75;4984357;28;20042;-68
2021/12/22 03:28:50;;;;;;;3.70;2.42;;;;;;;-2.14;97.89;101994.53;4988231;28;20054;-68
2021/12/22 03:31:16;;;;;;;1.77;1.47;;;;;;;-2.02;97.16;101993.44;4990578;28;20038;-68
2021/12/22 03:33:45;;;;;;;2.77;1.37;;;;;;;-2.18;97.63;101991.56;4975999;28;20566;-67
2021/12/22 03:36:11;;;;;;;6.87;2.17;;;;;;;-2.17;97.87;101998.44;4972135;28;20054;-68
2021/12/22 03:38:37;;;;;;;2.17;1.60;;;;;;;-2.16;98.20;101986.88;4972981;28;20523;-67
2021/12/22 03:41:04;;;;;;;1.60;1.40;;;;;;;-2.17;98.05;101990.53;4982745;28;20097;-68
2021/12/22 03:43:30;;;;;;;4.80;1.03;;;;;;;-2.04;97.65;101984.97;4980991;28;20132;-68
2021/12/22 03:45:55;;;;;;;2.27;1.47;;;;;;;-2.11;97.33;101986.94;4975420;28;20145;-67
2021/12/22 03:48:22;;;;;;;1.83;1.30;;;;;;;-2.22;97.80;101994.91;4985749;28;20038;-67
2021/12/22 03:50:47;;;;;;;4.60;1.63;;;;;;;-2.21;98.23;101994.69;4987255;28;20034;-67
2021/12/22 03:53:13;;;;;;;3.30;2.07;;;;;;;-2.07;97.64;101989.94;4992606;28;20042;-67
2021/12/22 03:55:38;;;;;;;2.10;1.13;;;;;;;-2.14;97.76;101995.34;4993718;28;20036;-67
2021/12/22 03:58:04;;;;;;;7.27;1.87;;;;;;;-2.12;98.26;101993.28;4977741;28;20412;-67
2021/12/22 04:00:30;;;;;;;1.80;1.00;;;;;;;-2.13;98.33;102001.44;4981528;28;20039;-68
2021/12/22 04:02:57;;;;;;;5.03;2.03;;;;;;;-2.14;98.58;101995.34;4989676;28;20030;-68
2021/12/22 04:05:23;;;;;;;1.20;1.10;;;;;;;-2.00;97.17;101999.28;4986099;28;20038;-67
2021/12/22 04:07:49;;;;;;;3.13;1.80;;;;;;;-2.16;97.82;101999.25;4992134;28;20038;-66
2021/12/22 04:10:22;;;;;;;2.65;1.73;;;;;;;-2.11;98.46;101992.22;4977982;28;20046;-67
2021/12/22 04:12:56;;;;;;;3.33;1.80;;;;;;;-2.12;97.95;101981.91;4992640;28;20064;-69
2021/12/22 04:15:24;;;;;;;1.50;1.40;;;;;;;-2.14;98.17;101991.91;4983281;28;20133;-67
2021/12/22 04:17:50;;;;;;;2.93;1.63;;;;;;;-2.18;98.43;101996.84;4987700;28;20042;-67
2021/12/22 04:20:16;;;;;;;5.57;1.77;;;;;;;-2.14;98.25;101984.78;4982879;28;20049;-67
2021/12/22 04:22:44;;;;;;;2.10;1.90;;;;;;;-2.13;97.69;101981.09;4976197;28;20445;-67
2021/12/22 04:25:10;;;;;;;8.20;2.17;;;;;;;-2.09;97.59;101990.16;5000912;23;20061;-66
2021/12/22 04:27:39;;;;;;;2.63;1.50;;;;;;;-2.12;97.56;101993.28;4992244;28;20053;-65
2021/12/22 04:30:06;;;;;;;2.87;1.87;;;;;;;-2.23;97.50;101990.69;4989186;28;20030;-66
2021/12/22 04:32:32;;;;;;;3.07;1.50;;;;;;;-2.21;97.67;101988.63;4988591;28;20034;-67
2021/12/22 04:34:57;;;;;;;5.30;1.80;;;;;;;-2.21;97.38;101985.97;4991185;28;20030;-66
2021/12/22 04:37:23;;;;;;;1.60;1.50;;;;;;;-2.28;97.66;101985.31;4988200;28;20026;-67
2021/12/22 04:39:48;;;;;;;5.10;2.00;;;;;;;-2.24;97.66;101989.06;4992056;28;20406;-66
2021/12/22 04:42:16;;;;;;;1.50;0.80;;;;;;;-2.34;96.70;101979.16;4990180;28;20808;-67
2021/12/22 04:44:41;;;;;;;2.77;1.07;;;;;;;-2.27;96.71;101982.47;4989933;28;20461;-67
2021/12/22 04:47:07;;;;;;;1.53;1.17;;;;;;;-2.32;96.65;101982.34;4992930;28;20042;-66
2021/12/22 04:49:35;;;;;;;4.13;1.60;;;;;;;-2.43;96.51;101980.56;4992562;28;20035;-66
2021/12/22 04:52:03;;;;;;;2.23;1.83;;;;;;;-2.50;96.94;101974.66;4992499;28;20047;-67
2021/12/22 04:56:56;;;;;;;3.23;2.33;;;;;;;-2.55;96.94;101977.16;4992754;28;20069;-66
2021/12/22 04:59:24;;;;;;;8.90;1.60;;;;;;;-2.58;97.28;101976.84;4991424;28;20627;-66
2021/12/22 05:01:50;;;;;;;2.10;1.13;;;;;;;-2.60;97.95;101976.28;4990874;28;20042;-67
2021/12/22 05:04:16;;;;;;;1.97;1.80;;;;;;;-2.53;97.38;101980.38;4989441;28;22359;-67
2021/12/22 05:06:41;;;;;;;5.00;2.73;;;;;;;-2.59;97.76;101978.69;4988108;28;20069;-66
2021/12/22 05:09:07;;;;;;;3.17;2.07;;;;;;;-2.50;97.43;101985.19;4991542;28;20113;-66
2021/12/22 05:11:37;;;;;;;2.13;1.63;;;;;;;-2.64;97.39;101989.13;4991204;28;20062;-66
2021/12/22 05:14:03;;;;;;;1.47;1.13;;;;;;;-2.57;96.86;101981.88;4990145;28;20046;-65
2021/12/22 05:16:29;;;;;;;2.53;1.53;;;;;;;-2.59;96.81;101981.31;4983010;28;20033;-66
2021/12/22 05:21:21;;;;;;;4.27;1.73;;;;;;;-2.72;97.21;101981.59;4988946;28;20035;-66
2021/12/22 05:23:51;;;;;;;3.43;1.77;;;;;;;-2.77;98.15;101978.88;4990261;28;20045;-66
2021/12/22 05:26:18;;;;;;;2.77;1.33;;;;;;;-2.71;97.97;101970.03;4992453;28;20034;-66
2021/12/22 05:28:44;;;;;;;4.73;1.43;;;;;;;-2.62;98.12;101976.53;4989857;28;20088;-66
2021/12/22 05:31:09;;;;;;;5.23;1.60;;;;;;;-2.61;96.77;101970.19;4990072;28;20679;-66
2021/12/22 05:33:35;;;;;;;4.37;2.23;;;;;;;-2.64;96.77;101972.50;4983574;28;20434;-66
2021/12/22 05:36:01;;;;;;;5.53;1.60;;;;;;;-2.73;97.48;101973.91;4989667;28;20565;-65
2021/12/22 05:38:26;;;;;;;3.97;2.37;;;;;;;-2.67;97.56;101967.72;4990059;28;20493;-66
2021/12/22 05:40:51;;;;;;;3.90;1.93;;;;;;;-2.71;96.93;101977.13;4987712;28;20034;-66
2021/12/22 05:43:19;;;;;;;2.87;2.37;;;;;;;-2.76;97.03;101965.44;4988768;28;20070;-66
2021/12/22 05:45:45;;;;;;;1.90;1.20;;;;;;;-2.88;97.60;101972.56;4985459;28;20105;-66
2021/12/22 05:48:10;;;;;;;3.83;1.93;;;;;;;-2.72;97.31;101967.59;4990725;28;20077;-67
2021/12/22 05:50:36;;;;;;;1.93;1.50;;;;;;;-2.86;97.46;101961.78;4981922;28;20403;-66
2021/12/22 05:53:04;;;;;;;11.10;2.03;;;;;;;-2.79;97.93;101963.25;4985161;28;20568;-67
2021/12/22 05:55:30;;;;;;;2.53;2.33;;;;;;;-2.73;97.41;101971.28;4988667;28;20081;-66
2021/12/22 05:57:55;;;;;;;3.17;1.57;;;;;;;-2.67;96.44;101967.72;4985120;28;20030;-65
2021/12/22 06:00:22;;;;;;;3.63;2.07;;;;;;;-2.81;97.16;101967.97;4986928;28;20101;-65
2021/12/22 06:02:48;;;;;;;1.97;1.57;;;;;;;-2.91;97.89;101966.97;4989442;28;20038;-66
2021/12/22 06:05:13;;;;;;;10.13;1.13;;;;;;;-2.90;98.59;101974.66;4988929;28;20034;-66
2021/12/22 06:07:39;;;;;;;2.33;1.77;;;;;;;-2.82;99.19;101973.47;4989735;28;20453;-67
2021/12/22 06:10:08;;;;;;;3.60;1.20;;;;;;;-2.83;99.12;101982.44;4986938;28;20069;-66
2021/12/22 06:12:34;;;;;;;4.70;2.27;;;;;;;-2.72;98.82;101981.59;4990123;28;20471;-65
2021/12/22 06:14:59;;;;;;;4.40;2.27;;;;;;;-2.73;98.72;101979.19;4991074;28;20080;-67
2021/12/22 06:17:24;;;;;;;5.50;3.07;;;;;;;-2.71;98.96;101972.66;4990008;28;20080;-66
2021/12/22 06:19:50;;;;;;;2.27;1.63;;;;;;;-2.76;98.97;101976.00;4985155;28;20602;-66
2021/12/22 06:22:16;;;;;;;6.73;2.23;;;;;;;-2.75;98.46;101976.78;4988692;28;20030;-65
2021/12/22 06:24:41;;;;;;;2.83;2.20;;;;;;;-2.92;100.00;101968.00;4988460;28;20098;-65
2021/12/22 06:27:06;;;;;;;1.80;1.70;;;;;;;-2.73;99.89;101969.47;4991012;28;20042;-65
2021/12/22 06:29:32;;;;;;;4.37;1.73;;;;;;;-2.80;100.00;101971.41;4989062;28;20089;-65
2021/12/22 06:31:57;;;;;;;5.50;2.07;;;;;;;-2.75;100.00;101958.34;4987328;28;20042;-66
2021/12/22 06:34:23;;;;;;;2.50;1.73;;;;;;;-2.89;100.00;101963.09;4986730;28;20395;-66
2021/12/22 06:36:48;;;;;;;2.20;1.60;;;;;;;-2.88;100.00;101966.50;4990361;28;20120;-66
2021/12/22 06:39:15;;;;;;;1.50;1.13;;;;;;;-2.80;100.00;101966.13;4989803;28;20080;-67
2021/12/22 06:41:41;;;;;;;4.57;1.80;;;;;;;-2.72;100.00;101968.41;4984862;28;20558;-65
2021/12/22 06:44:07;;;;;;;2.37;1.10;;;;;;;-2.67;100.00;101981.66;4986842;28;20081;-66
2021/12/22 06:46:32;;;;;;;3.33;1.43;;;;;;;-2.68;100.00;101977.44;4987539;28;20062;-66
2021/12/22 06:48:58;;;;;;;1.50;1.17;;;;;;;-2.73;100.00;101972.09;4987014;28;20537;-65
2021/12/22 06:51:23;;;;;;;2.50;1.27;;;;;;;-2.60;100.00;101973.66;4990209;28;20038;-66
2021/12/22 06:53:49;;;;;;;2.73;1.63;;;;;;;-2.61;100.00;101972.84;4988878;28;20026;-68
2021/12/22 06:56:15;;;;;;;6.63;1.93;;;;;;;-2.62;100.00;101967.81;4988914;28;20061;-65
2021/12/22 06:58:40;;;;;;;2.77;1.30;;;;;;;-2.58;100.00;101968.94;4990275;28;20169;-65
2021/12/22 07:01:05;;;;;;;1.73;1.63;;;;;;;-2.60;100.00;101958.63;4990724;28;20046;-67
2021/12/22 07:03:31;;;;;;;2.63;1.40;;;;;;;-2.63;100.00;101967.00;4986311;28;20494;-66
2021/12/22 07:05:56;;;;;;;4.07;1.90;;;;;;;-2.64;100.00;101967.25;4988702;28;20513;-65
2021/12/22 07:08:22;;;;;;;1.53;1.43;;;;;;;-2.55;100.00;101960.53;4990397;28;20034;-66
2021/12/22 07:10:48;;;;;;;3.13;1.37;;;;;;;-2.63;100.00;101953.81;4990662;28;20129;-66
2021/12/22 07:13:14;;;;;;;0.93;0.93;;;;;;;-2.64;100.00;101965.41;4986579;28;20039;-67
2021/12/22 07:15:40;;;;;;;8.37;3.53;;;;;;;-2.60;100.00;101958.63;4985653;28;20092;-66
2021/12/22 07:18:08;;;;;;;1.53;0.80;;;;;;;-2.63;100.00;101953.81;4983476;28;20080;-66
2021/12/22 07:20:37;;;;;;;0.43;0.43;;;;;;;-2.58;100.00;101961.84;5003508;28;20065;-66
2021/12/22 07:23:03;;;;;;;3.97;1.83;;;;;;;-2.71;100.00;101956.03;4982245;28;20034;-66
2021/12/22 07:25:29;;;;;;;2.13;1.27;;;;;;;-2.59;100.00;101954.94;4985300;28;20022;-66
2021/12/22 07:27:54;;;;;;;1.63;1.53;;;;;;;-2.49;100.00;101949.88;4993560;28;20120;-66
2021/12/22 07:30:20;;;;;;;3.77;1.93;;;;;;;-2.59;100.00;101956.81;4993332;28;20042;-65
2021/12/22 07:32:45;;;;;;;5.53;1.37;;;;;;;-2.56;100.00;101951.88;4985988;28;20061;-67
2021/12/22 07:35:37;;;;;;;1.27;0.90;;;;;;;-2.65;100.00;101963.78;4990950;28;20041;-66
2021/12/22 07:38:13;;;;;;;2.47;1.70;;;;;;;-2.45;100.00;101958.09;4992428;28;21054;-66
2021/12/22 07:40:39;;;;;;;1.90;1.27;;;;;;;-2.60;100.00;101958.63;4992794;28;20046;-66
2021/12/22 07:43:04;;;;;;;3.17;1.83;;;;;;;-2.47;100.00;101952.28;4992621;28;20091;-65
2021/12/22 07:45:30;;;;;;;1.27;1.23;;;;;;;-2.67;100.00;101957.97;4987292;28;20395;-66
2021/12/22 07:47:55;;;;;;;7.43;2.30;;;;;;;-2.50;100.00;101950.94;4987734;28;20034;-66
2021/12/22 07:50:21;;;;;;;0.97;0.93;;;;;;;-2.54;100.00;101947.16;4990121;28;20239;-68
2021/12/22 07:52:46;;;;;;;2.47;1.10;;;;;;;-2.38;100.00;101954.28;4989780;28;20042;-68
2021/12/22 07:55:12;;;;;;;3.53;2.17;;;;;;;-2.49;100.00;101944.59;4989428;28;20046;-66
2021/12/22 07:57:37;;;;;;;2.33;1.40;;;;;;;-2.47;100.00;101947.81;4990690;28;20582;-67
2021/12/22 08:00:06;;;;;;;7.03;0.97;;;;;;;-2.49;100.00;101949.88;4991589;28;20495;-67
2021/12/22 08:02:38;;;;;;;0.90;0.90;;;;;;;-2.58;100.00;101951.28;4993091;28;20462;-67
2021/12/22 08:05:04;;;;;;;4.73;1.33;;;;;;;-2.55;100.00;101948.19;4989934;28;20035;-67
2021/12/22 08:07:29;;;;;;;1.03;0.93;;;;;;;-2.45;100.00;101950.19;4993511;28;20414;-67
2021/12/22 08:09:54;;;;;;;1.80;1.27;;;;;;;-2.48;100.00;101942.78;4993389;28;20082;-66
2021/12/22 08:12:20;;;;;;;1.07;0.97;;;;;;;-2.38;100.00;101945.59;4992566;28;20125;-66
2021/12/22 08:14:45;;;;;;;1.17;1.07;;;;;;;-2.50;100.00;101950.13;4986698;28;20036;-67
2021/12/22 08:17:11;;;;;;;3.10;1.10;;;;;;;-2.43;100.00;101948.94;4993010;28;20042;-67
2021/12/22 08:19:36;;;;;;;5.13;0.90;;;;;;;-2.55;100.00;101953.44;4990827;28;20271;-66
2021/12/22 08:22:02;;;;;;;7.80;2.40;;;;;;;-2.50;100.00;101948.28;4992060;28;20126;-66
2021/12/22 08:24:28;;;;;;;1.10;0.83;;;;;;;-2.40;100.00;101943.19;4991722;28;20109;-67
2021/12/22 08:26:53;;;;;;;5.60;1.97;;;;;;;-2.40;100.00;101945.81;4990304;28;20387;-67
2021/12/22 08:29:19;;;;;;;2.47;1.03;;;;;;;-2.37;100.00;101953.28;4987308;28;20622;-66
2021/12/22 08:31:45;;;;;;;4.30;1.50;;;;;;;-2.25;100.00;101947.94;4986217;28;20042;-67
2021/12/22 08:34:16;;;;;;;2.87;1.67;;;;;;;-2.21;100.00;101941.16;4990765;28;20247;-67
2021/12/22 08:39:28;;;;;;;4.03;1.60;;;;;;;-2.16;100.00;101939.38;4991039;28;20121;-66
2021/12/22 08:41:53;;;;;;;2.70;1.10;;;;;;;-2.10;100.00;101942.91;4991445;28;20427;-66
2021/12/22 08:44:19;;;;;;;3.13;1.90;;;;;;;-2.13;100.00;101941.53;4992510;28;20038;-66
2021/12/22 08:46:50;;;;;;;3.27;1.87;;;;;;;-2.15;100.00;101943.63;4992539;28;20042;-66
2021/12/22 08:49:18;;;;;;;4.43;1.97;;;;;;;-2.21;100.00;101949.88;4988029;28;20089;-68
2021/12/22 08:51:48;;;;;;;1.77;1.63;;;;;;;-2.16;100.00;101941.22;4990464;28;20042;-65
2021/12/22 08:54:14;;;;;;;0.80;0.70;;;;;;;-2.14;100.00;101945.22;4988811;28;20061;-66
2021/12/22 08:56:40;;;;;;;1.87;0.97;;;;;;;-2.22;100.00;101940.34;4991758;28;20038;-66
2021/12/22 08:59:08;;;;;;;0.67;0.63;;;;;;;-2.06;100.00;101944.84;4992269;28;20060;-66
2021/12/22 09:01:35;;;;;;;2.03;1.40;;;;;;;-1.96;100.00;101949.47;4989820;28;20097;-65
2021/12/22 09:04:00;;;;;;;1.33;0.90;;;;;;;-2.01;100.00;101942.28;4989559;28;20391;-65
2021/12/22 09:06:27;;;;;;;6.00;1.93;;;;;;;-1.92;100.00;101940.84;4991943;28;20033;-65
2021/12/22 09:08:52;;;;;;;3.57;2.03;;;;;;;-1.96;100.00;101952.94;4991218;28;20050;-65
2021/12/22 09:11:22;;;;;;;2.20;1.07;;;;;;;-1.92;100.00;101951.38;4989167;28;20096;-65
2021/12/22 09:13:47;;;;;;;1.80;0.90;;;;;;;-1.87;100.00;101954.13;4991562;28;20499;-66
2021/12/22 09:16:13;;;;;;;4.50;1.13;;;;;;;-1.96;100.00;101944.22;4992204;28;20110;-65
2021/12/22 09:18:40;;;;;;;3.08;1.00;;;;;;;-1.90;100.00;101944.03;4991178;28;20495;-66
2021/12/22 09:21:08;;;;;;;4.70;1.93;;;;;;;-1.90;100.00;101949.31;4992078;28;20502;-67
2021/12/22 09:23:33;;;;;;;1.98;1.33;;;;;;;-1.84;100.00;101947.56;4991025;28;20034;-66
2021/12/22 09:25:59;;;;;;;0.63;0.63;;;;;;;-1.83;100.00;101942.03;4990840;28;20030;-65
2021/12/22 09:28:24;;;;;;;4.00;2.63;;;;;;;-1.93;100.00;101938.44;4989304;28;20073;-65
2021/12/22 09:30:50;;;;;;;3.00;1.60;;;;;;;-1.85;100.00;101938.03;4986004;28;20477;-66
2021/12/22 09:33:18;;;;;;;1.13;0.90;;;;;;;-1.82;100.00;101943.63;4987274;28;20038;-67
2021/12/22 09:35:46;;;;;;;3.33;1.80;;;;;;;-1.73;100.00;101949.31;4990923;28;20491;-66
2021/12/22 09:38:12;;;;;;;2.17;1.20;;;;;;;-1.66;100.00;101947.31;4988395;28;20034;-64
2021/12/22 09:40:38;;;;;;;1.23;1.13;;;;;;;-1.67;100.00;101953.66;4990567;28;20045;-66
2021/12/22 09:43:06;;;;;;;5.00;1.60;;;;;;;-1.65;100.00;101962.13;4983840;28;20073;-67
2021/12/22 09:45:34;;;;;;;9.27;2.67;;;;;;;-1.62;100.00;101952.91;4987321;28;20037;-67
2021/12/22 09:50:48;;;;;;;4.05;2.00;;;;;;;-1.29;100.00;101945.72;4987126;28;20129;-68
2021/12/22 09:53:19;;;;;;;4.25;1.73;;;;;;;-1.36;100.00;101952.22;4983061;28;20046;-68
2021/12/22 09:55:46;;;;;;;2.15;0.93;;;;;;;-1.32;100.00;101945.44;4975508;28;20034;-66
2021/12/22 09:58:17;;;;;;;3.40;1.83;;;;;;;-1.37;100.00;101959.34;4977677;28;20117;-67
2021/12/22 10:00:45;;;;;;;4.33;2.13;;;;;;;-1.36;100.00;101952.22;4987391;28;20103;-67
2021/12/22 10:03:11;;;;;;;2.70;1.15;;;;;;;-1.50;100.00;101959.69;4987817;28;20914;-68
2021/12/22 10:05:40;;;;;;;3.08;2.10;;;;;;;-1.50;100.00;101953.59;4984534;28;20031;-67
2021/12/22 10:08:10;;;;;;;2.25;1.40;;;;;;;-1.44;100.00;101953.44;4987991;28;20088;-67
2021/12/22 10:10:38;;;;;;;4.07;1.85;;;;;;;-1.42;100.00;101942.63;4980140;28;20422;-67
2021/12/22 10:13:14;;;;;;;3.42;2.10;;;;;;;-1.29;100.00;101937.00;4994067;28;20033;-68
2021/12/22 10:15:39;;;;;;;5.53;1.85;;;;;;;-1.47;100.00;101945.22;4986534;28;20506;-65
2021/12/22 10:18:11;;;;;;;5.70;1.55;;;;;;;-1.41;100.00;101939.75;4982212;28;20076;-66
2021/12/22 10:20:38;;;;;;;1.33;1.23;;;;;;;-1.29;100.00;101939.66;4980948;28;20446;-66
2021/12/22 10:23:19;;;;;;;3.28;1.08;;;;;;;-1.19;100.00;101931.84;4990216;28;20045;-66
2021/12/22 10:25:59;;;;;;;4.35;1.88;;;;;;;-1.24;100.00;101929.94;5027603;22;20509;-68
2021/12/22 10:28:27;;;;;;;2.13;1.93;;;;;;;-1.33;100.00;101939.34;5003720;28;20042;-68
2021/12/22 10:31:02;;;;;;;1.20;1.05;;;;;;;-1.30;100.00;101930.94;5008197;28;20029;-68
2021/12/22 10:33:30;;;;;;;5.88;2.40;;;;;;;-1.31;100.00;101931.97;5004357;28;20073;-68
2021/12/22 10:36:03;;;;;;;1.27;1.08;;;;;;;-1.23;100.00;101936.03;5001905;28;20486;-67
2021/12/22 10:38:31;;;;;;;4.30;1.23;;;;;;;-1.16;100.00;101931.38;4999505;28;20052;-67
2021/12/22 10:41:27;;;;;;;3.28;1.73;;;;;;;-1.14;100.00;101934.56;5001742;28;20116;-67
2021/12/22 10:43:52;;;;;;;4.68;1.92;;;;;;;-1.09;100.00;101938.09;5006835;28;20491;-67
2021/12/22 10:46:27;;;;;;;4.25;1.65;;;;;;;-1.22;100.00;101929.72;4999224;28;20030;-68
2021/12/22 10:49:18;;;;;;;2.17;1.55;;;;;;;-1.04;100.00;101937.31;4996182;28;20046;-68
2021/12/22 10:51:59;;;;;;;2.88;0.93;;;;;;;-1.08;100.00;101937.03;5003155;28;20037;-68
2021/12/22 10:54:39;;;;;;;2.25;1.25;;;;;;;-1.15;100.00;101935.59;4996670;28;20049;-68
2021/12/22 10:57:10;;;;;;;2.55;1.33;;;;;;;-1.18;100.00;101930.84;4996844;28;20044;-67
2021/12/22 10:59:49;;;;;;;3.47;1.88;;;;;;;-1.10;100.00;101927.75;4998233;28;20062;-68
2021/12/22 11:02:25;;;;;;;1.67;1.58;;;;;;;-0.97;100.00;101928.16;5008954;28;20045;-68
2021/12/22 11:04:50;;;;;;;2.67;1.00;;;;;;;-0.87;100.00;101932.78;5007572;28;20037;-68
2021/12/22 11:07:24;;;;;;;3.42;1.83;;;;;;;-0.91;100.00;101921.91;5009094;28;20056;-67
2021/12/22 11:09:51;;;;;;;1.80;0.95;;;;;;;-0.89;100.00;101926.16;5006167;28;20045;-68
2021/12/22 11:12:38;;;;;;;3.35;1.65;;;;;;;-0.73;100.00;101920.78;5009877;28;20479;-68
2021/12/22 11:15:05;;;;;;;6.70;2.80;;;;;;;-0.74;100.00;101913.09;5010282;28;20085;-68
2021/12/22 11:17:31;;;;;;;1.33;1.23;;;;;;;-0.86;100.00;101915.88;5009347;28;20072;-68
2021/12/22 11:20:04;;;;;;;5.70;1.25;;;;;;;-0.96;100.00;101913.94;5007515;28;20053;-69
2021/12/22 11:22:47;;;;;;;1.65;1.55;;;;;;;-0.83;100.00;101919.88;5001908;28;20081;-67
2021/12/22 11:25:12;;;;;;;5.35;1.58;;;;;;;-0.84;100.00;101905.88;5008042;28;20080;-67
2021/12/22 11:27:39;;;;;;;3.65;1.65;;;;;;;-0.95;100.00;101917.38;4999355;28;20034;-67
2021/12/22 11:30:06;;;;;;;2.72;2.03;;;;;;;-0.88;100.00;101914.53;4999767;28;20433;-68
2021/12/22 11:32:32;;;;;;;3.15;1.65;;;;;;;-1.01;100.00;101900.63;4999147;28;20417;-68
2021/12/22 11:35:02;;;;;;;2.67;1.58;;;;;;;-0.84;100.00;101900.56;4998656;28;20068;-68
2021/12/22 11:37:28;;;;;;;2.13;1.13;;;;;;;-0.78;100.00;101894.31;4994783;28;20057;-68
2021/12/22 11:39:55;;;;;;;2.45;1.73;;;;;;;-0.87;100.00;101895.75;5002070;28;20041;-68
2021/12/22 11:42:25;;;;;;;5.25;1.85;;;;;;;-0.86;100.00;101894.75;5006562;28;20406;-68
2021/12/22 11:44:54;;;;;;;3.67;1.95;;;;;;;-0.80;100.00;101895.59;5002783;28;20113;-68
2021/12/22 11:47:20;;;;;;;3.47;2.17;;;;;;;-0.74;100.00;101897.25;5004233;28;20044;-68